createdAt,value
2023-01-21T00:01:52.496Z,3.18
2023-01-21T00:04:20.405Z,3.77
2023-01-21T00:06:49.247Z,3.72
2023-01-21T00:09:18.507Z,3.66
2023-01-21T00:11:46.420Z,3.69
2023-01-21T00:14:14.312Z,3.38
2023-01-21T00:16:42.249Z,3.44
2023-01-21T00:19:10.306Z,3.60
2023-01-21T00:21:38.268Z,3.54
2023-01-21T00:24:06.443Z,3.09
2023-01-21T00:26:35.693Z,3.30
2023-01-21T00:29:03.564Z,3.10
2023-01-21T00:31:31.688Z,2.93
2023-01-21T00:33:59.622Z,2.93
2023-01-21T00:36:30.263Z,3.23
2023-01-21T00:38:58.470Z,3.42
2023-01-21T00:41:26.531Z,3.26
2023-01-21T00:43:55.780Z,3.13
2023-01-21T00:46:23.644Z,3.52
2023-01-21T00:48:51.588Z,3.47
2023-01-21T00:51:19.528Z,3.39
2023-01-21T00:53:47.439Z,3.48
2023-01-21T00:56:15.376Z,3.36
2023-01-21T00:58:44.311Z,3.72
2023-01-21T01:01:15.657Z,3.75
2023-01-21T01:03:44.442Z,3.67
2023-01-21T01:06:14.660Z,3.32
2023-01-21T01:08:42.899Z,3.49
2023-01-21T01:11:11.279Z,3.39
2023-01-21T01:13:39.851Z,3.22
2023-01-21T01:16:07.970Z,3.34
2023-01-21T01:18:38.450Z,3.34
2023-01-21T01:21:07.861Z,3.64
2023-01-21T01:23:36.007Z,3.62
2023-01-21T01:26:07.387Z,3.53
2023-01-21T01:28:36.204Z,3.66
2023-01-21T01:31:06.553Z,3.60
2023-01-21T01:33:34.937Z,3.26
2023-01-21T01:36:04.970Z,3.36
2023-01-21T01:38:34.808Z,3.45
2023-01-21T01:41:03.128Z,3.56
2023-01-21T01:43:57.431Z,3.54
2023-01-21T01:46:27.296Z,3.52
2023-01-21T01:49:01.520Z,3.37
2023-01-21T01:51:40.233Z,3.72
2023-01-21T01:54:09.783Z,3.70
2023-01-21T01:56:41.304Z,3.62
2023-01-21T01:59:09.201Z,3.38
2023-01-21T02:01:37.917Z,3.50
2023-01-21T02:04:09.407Z,3.70
2023-01-21T02:06:39.570Z,3.77
2023-01-21T02:09:08.394Z,3.89
2023-01-21T02:11:38.229Z,4.08
2023-01-21T02:14:06.626Z,3.46
2023-01-21T02:16:52.879Z,3.78
2023-01-21T02:19:57.227Z,4.06
2023-01-21T02:22:33.496Z,3.91
2023-01-21T02:25:31.085Z,3.87
2023-01-21T02:28:28.170Z,3.68
2023-01-21T02:31:16.865Z,3.61
2023-01-21T02:33:56.471Z,3.72
2023-01-21T02:36:37.152Z,3.88
2023-01-21T02:39:13.797Z,4.13
2023-01-21T02:41:57.337Z,3.78
2023-01-21T02:44:33.301Z,3.84
2023-01-21T02:47:07.929Z,3.71
2023-01-21T02:49:41.222Z,3.87
2023-01-21T02:52:09.398Z,3.91
2023-01-21T02:54:55.189Z,4.13
2023-01-21T02:57:36.146Z,3.97
2023-01-21T03:00:10.964Z,3.92
2023-01-21T03:03:03.625Z,4.04
2023-01-21T03:05:46.653Z,4.37
2023-01-21T03:08:21.713Z,4.07
2023-01-21T03:10:56.614Z,4.35
2023-01-21T03:13:51.626Z,4.32
2023-01-21T03:16:42.666Z,4.29
2023-01-21T03:19:14.657Z,3.94
2023-01-21T03:21:44.093Z,4.14
2023-01-21T03:24:14.614Z,4.45
2023-01-21T03:26:46.802Z,4.39
2023-01-21T03:29:19.301Z,4.37
2023-01-21T03:31:51.795Z,4.46
2023-01-21T03:34:21.415Z,4.57
2023-01-21T03:36:56.437Z,4.43
2023-01-21T03:39:34.693Z,4.20
2023-01-21T03:42:03.667Z,4.25
2023-01-21T03:44:31.657Z,4.13
2023-01-21T03:47:04.863Z,4.29
2023-01-21T03:49:34.778Z,4.32
2023-01-21T03:52:06.827Z,4.25
2023-01-21T03:54:34.828Z,4.34
2023-01-21T03:57:02.695Z,4.15
2023-01-21T03:59:30.571Z,4.42
2023-01-21T04:01:58.516Z,4.11
2023-01-21T04:04:26.415Z,4.22
2023-01-21T04:06:54.338Z,4.33
2023-01-21T04:09:23.563Z,4.19
2023-01-21T04:11:51.430Z,4.26
2023-01-21T04:14:19.297Z,4.08
2023-01-21T04:16:47.674Z,4.31
2023-01-21T04:19:15.517Z,4.33
2023-01-21T04:21:43.416Z,4.07
2023-01-21T04:24:11.439Z,4.06
2023-01-21T04:26:40.683Z,4.11
2023-01-21T04:29:08.611Z,3.93
2023-01-21T04:31:36.522Z,3.95
2023-01-21T04:34:04.542Z,4.15
2023-01-21T04:36:32.494Z,4.35
2023-01-21T04:39:00.342Z,4.27
2023-01-21T04:41:28.481Z,4.17
2023-01-21T04:43:57.749Z,4.12
2023-01-21T04:46:25.703Z,4.03
2023-01-21T04:48:53.623Z,4.19
2023-01-21T04:51:21.651Z,4.07
2023-01-21T04:53:49.586Z,3.83
2023-01-21T04:56:17.454Z,4.12
2023-01-21T04:58:45.300Z,4.23
2023-01-21T05:01:14.578Z,3.99
2023-01-21T05:03:42.488Z,4.01
2023-01-21T05:06:10.469Z,4.07
2023-01-21T05:08:38.431Z,3.96
2023-01-21T05:11:08.568Z,4.04
2023-01-21T05:13:36.471Z,3.99
2023-01-21T05:16:05.771Z,3.92
2023-01-21T05:18:35.159Z,3.91
2023-01-21T05:21:03.084Z,4.01
2023-01-21T05:23:31.045Z,4.01
2023-01-21T05:25:58.943Z,3.95
2023-01-21T05:28:27.065Z,4.23
2023-01-21T05:30:55.047Z,4.11
2023-01-21T05:33:26.340Z,4.03
2023-01-21T05:35:55.675Z,4.03
2023-01-21T05:38:23.589Z,4.26
2023-01-21T05:40:51.492Z,4.02
2023-01-21T05:43:19.360Z,4.17
2023-01-21T05:45:47.658Z,4.02
2023-01-21T05:48:15.541Z,4.23
2023-01-21T05:50:43.449Z,4.07
2023-01-21T05:53:12.704Z,4.26
2023-01-21T05:55:40.901Z,4.39
2023-01-21T05:58:09.026Z,4.22
2023-01-21T06:00:36.908Z,3.97
2023-01-21T06:03:05.336Z,4.06
2023-01-21T06:05:33.178Z,4.27
2023-01-21T06:08:01.070Z,4.25
2023-01-21T06:10:30.344Z,4.37
2023-01-21T06:12:58.255Z,4.24
2023-01-21T06:15:26.690Z,4.11
2023-01-21T06:17:54.812Z,3.97
2023-01-21T06:20:23.003Z,4.06
2023-01-21T06:22:50.940Z,4.10
2023-01-21T06:25:18.831Z,4.16
2023-01-21T06:27:48.062Z,4.04
2023-01-21T06:30:16.534Z,4.50
2023-01-21T06:32:44.559Z,4.35
2023-01-21T06:35:12.410Z,4.34
2023-01-21T06:37:40.257Z,4.44
2023-01-21T06:40:09.334Z,4.55
2023-01-21T06:42:37.247Z,4.55
2023-01-21T06:45:07.891Z,4.28
2023-01-21T06:47:36.393Z,4.40
2023-01-21T06:50:04.456Z,4.47
2023-01-21T06:52:32.322Z,4.58
2023-01-21T06:55:00.264Z,4.69
2023-01-21T06:57:28.164Z,4.57
2023-01-21T06:59:56.076Z,4.48
2023-01-21T07:02:25.396Z,4.78
2023-01-21T07:04:53.317Z,4.59
2023-01-21T07:07:21.191Z,4.36
2023-01-21T07:09:49.132Z,4.30
2023-01-21T07:12:17.033Z,4.45
2023-01-21T07:14:44.982Z,4.50
2023-01-21T07:17:12.995Z,4.28
2023-01-21T07:19:42.238Z,4.63
2023-01-21T07:22:10.140Z,3.95
2023-01-21T07:24:38.129Z,4.29
2023-01-21T07:27:06.713Z,4.75
2023-01-21T07:29:34.666Z,4.64
2023-01-21T07:32:02.962Z,4.43
2023-01-21T07:34:30.950Z,4.46
2023-01-21T07:37:00.295Z,4.58
2023-01-21T07:39:28.175Z,4.55
2023-01-21T07:41:56.034Z,4.49
2023-01-21T07:44:23.984Z,4.63
2023-01-21T07:46:51.941Z,4.43
2023-01-21T07:49:19.910Z,4.49
2023-01-21T07:51:48.840Z,4.58
2023-01-21T07:54:18.068Z,4.64
2023-01-21T07:56:46.503Z,4.51
2023-01-21T07:59:15.133Z,4.45
2023-01-21T08:01:43.241Z,4.50
2023-01-21T08:04:11.168Z,4.52
2023-01-21T08:06:41.310Z,4.59
2023-01-21T08:09:09.558Z,4.64
2023-01-21T08:11:38.793Z,4.62
2023-01-21T08:14:06.690Z,4.43
2023-01-21T08:16:34.712Z,4.56
2023-01-21T08:19:02.647Z,4.48
2023-01-21T08:21:30.579Z,4.52
2023-01-21T08:23:58.483Z,4.76
2023-01-21T08:26:26.348Z,4.68
2023-01-21T08:28:56.095Z,4.53
2023-01-21T08:31:24.090Z,4.77
2023-01-21T08:33:51.966Z,4.67
2023-01-21T08:36:19.893Z,4.92
2023-01-21T08:38:48.810Z,4.70
2023-01-21T08:41:17.776Z,4.88
2023-01-21T08:43:45.729Z,4.88
2023-01-21T08:46:15.068Z,4.89
2023-01-21T08:48:42.950Z,4.77
2023-01-21T08:51:11.112Z,4.70
2023-01-21T08:53:39.074Z,4.72
2023-01-21T08:56:07.492Z,4.95
2023-01-21T08:58:35.403Z,5.08
2023-01-21T09:01:07.929Z,5.20
2023-01-21T09:03:37.661Z,5.20
2023-01-21T09:06:07.145Z,5.08
2023-01-21T09:08:36.405Z,4.96
2023-01-21T09:11:06.785Z,5.07
2023-01-21T09:13:37.169Z,5.05
2023-01-21T09:16:09.617Z,4.96
2023-01-21T09:18:42.844Z,5.22
2023-01-21T09:21:15.449Z,5.35
2023-01-21T09:23:44.443Z,5.11
2023-01-21T09:26:15.777Z,5.25
2023-01-21T09:28:45.412Z,4.95
2023-01-21T09:31:15.013Z,5.48
2023-01-21T09:33:46.178Z,5.14
2023-01-21T09:36:15.827Z,5.71
2023-01-21T09:38:43.847Z,5.59
2023-01-21T09:41:23.691Z,5.19
2023-01-21T09:44:00.065Z,5.65
2023-01-21T09:46:34.667Z,5.47
2023-01-21T09:49:07.212Z,5.27
2023-01-21T09:51:46.618Z,5.57
2023-01-21T09:54:20.743Z,5.77
2023-01-21T09:57:11.497Z,5.32
2023-01-21T09:59:52.126Z,5.84
2023-01-21T10:02:29.623Z,5.77
2023-01-21T10:05:18.287Z,5.55
2023-01-21T10:07:54.588Z,5.81
2023-01-21T10:10:30.444Z,5.67
2023-01-21T10:13:15.355Z,5.43
2023-01-21T10:15:52.742Z,5.92
2023-01-21T10:18:26.850Z,5.58
2023-01-21T10:20:59.896Z,5.39
2023-01-21T10:23:33.096Z,5.74
2023-01-21T10:26:02.692Z,5.80
2023-01-21T10:28:31.575Z,5.56
2023-01-21T10:31:04.127Z,5.70
2023-01-21T10:33:34.033Z,5.62
2023-01-21T10:36:20.975Z,5.71
2023-01-21T10:38:57.586Z,6.27
2023-01-21T10:41:38.373Z,5.88
2023-01-21T10:44:19.176Z,5.90
2023-01-21T10:46:53.268Z,6.16
2023-01-21T10:49:31.650Z,6.40
2023-01-21T10:52:07.511Z,6.39
2023-01-21T10:54:48.699Z,6.23
2023-01-21T10:57:29.839Z,5.91
2023-01-21T11:00:01.363Z,6.25
2023-01-21T11:02:32.028Z,6.71
2023-01-21T11:05:03.269Z,6.49
2023-01-21T11:07:37.956Z,6.55
2023-01-21T11:10:07.835Z,6.55
2023-01-21T11:12:36.088Z,6.46
2023-01-21T11:15:14.291Z,6.31
2023-01-21T11:17:45.496Z,6.24
2023-01-21T11:20:23.540Z,5.97
2023-01-21T11:22:52.829Z,5.97
2023-01-21T11:25:32.259Z,6.35
2023-01-21T11:28:00.129Z,6.51
2023-01-21T11:30:49.099Z,6.79
2023-01-21T11:33:26.961Z,6.79
2023-01-21T11:35:56.283Z,6.55
2023-01-21T11:38:33.087Z,6.58
2023-01-21T11:41:03.303Z,6.38
2023-01-21T11:43:36.511Z,6.34
2023-01-21T11:46:22.715Z,6.75
2023-01-21T11:48:50.913Z,6.79
2023-01-21T11:51:18.937Z,6.78
2023-01-21T11:53:48.221Z,7.07
2023-01-21T11:56:17.025Z,6.58
2023-01-21T11:58:45.008Z,6.39
2023-01-21T12:01:22.589Z,6.84
2023-01-21T12:03:53.682Z,6.86
2023-01-21T12:06:24.351Z,6.52
2023-01-21T12:08:57.110Z,6.66
2023-01-21T12:11:28.958Z,6.54
2023-01-21T12:14:03.455Z,7.16
2023-01-21T12:16:36.408Z,6.77
2023-01-21T12:19:19.557Z,6.69
2023-01-21T12:22:09.810Z,7.06
2023-01-21T12:25:01.984Z,6.85
2023-01-21T12:27:38.306Z,6.81
2023-01-21T12:30:17.847Z,7.03
2023-01-21T12:32:49.834Z,6.77
2023-01-21T12:35:25.232Z,6.79
2023-01-21T12:38:00.063Z,7.18
2023-01-21T12:40:34.395Z,6.80
2023-01-21T12:43:09.552Z,6.98
2023-01-21T12:45:40.996Z,6.78
2023-01-21T12:48:18.171Z,7.31
2023-01-21T12:50:52.524Z,6.89
2023-01-21T12:53:27.687Z,7.23
2023-01-21T12:56:15.500Z,6.98
2023-01-21T12:58:47.552Z,7.01
2023-01-21T13:01:20.616Z,7.04
2023-01-21T13:03:58.121Z,6.76
2023-01-21T13:06:51.957Z,6.78
2023-01-21T13:09:30.296Z,6.83
2023-01-21T13:12:04.651Z,6.97
2023-01-21T13:14:37.205Z,6.76
2023-01-21T13:17:12.486Z,6.93
2023-01-21T13:19:40.430Z,6.83
2023-01-21T13:22:19.187Z,7.42
2023-01-21T13:25:05.742Z,7.34
2023-01-21T13:27:44.233Z,6.85
2023-01-21T13:30:24.729Z,6.97
2023-01-21T13:33:00.199Z,6.65
2023-01-21T13:35:38.703Z,7.16
2023-01-21T13:38:16.041Z,6.68
2023-01-21T13:40:54.605Z,6.66
2023-01-21T13:43:44.159Z,6.50
2023-01-21T13:46:26.127Z,6.82
2023-01-21T13:49:06.285Z,6.91
2023-01-21T13:51:59.180Z,6.91
2023-01-21T13:54:52.763Z,7.01
2023-01-21T13:57:36.130Z,6.62
2023-01-21T14:00:12.800Z,6.77
2023-01-21T14:02:48.001Z,6.77
2023-01-21T14:05:22.630Z,6.47
2023-01-21T14:07:55.825Z,6.60
2023-01-21T14:10:26.979Z,6.75
2023-01-21T14:13:20.020Z,6.77
2023-01-21T14:16:02.548Z,6.80
2023-01-21T14:18:57.748Z,6.66
2023-01-21T14:21:52.063Z,6.75
2023-01-21T14:24:34.961Z,7.06
2023-01-21T14:27:14.955Z,6.70
2023-01-21T14:29:46.735Z,6.83
2023-01-21T14:32:23.340Z,6.63
2023-01-21T14:35:03.658Z,6.71
2023-01-21T14:37:36.108Z,6.58
2023-01-21T14:40:17.295Z,6.48
2023-01-21T14:42:49.134Z,6.67
2023-01-21T14:45:20.486Z,6.45
2023-01-21T14:47:51.820Z,6.29
2023-01-21T14:50:46.441Z,6.87
2023-01-21T14:53:21.542Z,6.52
2023-01-21T14:56:08.589Z,6.48
2023-01-21T14:58:37.865Z,6.58
2023-01-21T15:01:07.990Z,6.56
2023-01-21T15:03:49.181Z,6.69
2023-01-21T15:06:21.260Z,6.71
2023-01-21T15:08:52.531Z,6.99
2023-01-21T15:11:22.877Z,6.68
2023-01-21T15:14:04.008Z,6.60
2023-01-21T15:16:36.797Z,6.53
2023-01-21T15:19:34.631Z,6.48
2023-01-21T15:22:39.744Z,6.32
2023-01-21T15:25:31.519Z,6.23
2023-01-21T15:28:33.213Z,6.06
2023-01-21T15:31:03.312Z,5.82
2023-01-21T15:33:32.547Z,6.19
2023-01-21T15:36:02.954Z,6.20
2023-01-21T15:38:31.184Z,5.55
2023-01-21T15:41:04.931Z,5.47
2023-01-21T15:43:42.885Z,5.54
2023-01-21T15:46:27.067Z,5.71
2023-01-21T15:49:19.152Z,5.08
2023-01-21T15:52:01.774Z,5.13
2023-01-21T15:54:36.488Z,4.86
2023-01-21T15:57:21.747Z,5.30
2023-01-21T16:00:12.841Z,5.34
2023-01-21T16:02:53.249Z,5.42
2023-01-21T16:05:29.021Z,5.21
2023-01-21T16:08:08.333Z,5.44
2023-01-21T16:10:43.277Z,5.53
2023-01-21T16:13:17.982Z,5.32
2023-01-21T16:16:00.742Z,4.73
2023-01-21T16:18:35.556Z,5.06
2023-01-21T16:21:04.784Z,5.37
2023-01-21T16:23:41.542Z,5.00
2023-01-21T16:26:09.613Z,4.91
2023-01-21T16:28:46.189Z,4.53
2023-01-21T16:31:14.154Z,5.10
2023-01-21T16:33:43.030Z,5.05
2023-01-21T16:36:14.271Z,4.42
2023-01-21T16:38:45.649Z,4.81
2023-01-21T16:41:24.154Z,4.99
2023-01-21T16:43:55.361Z,5.09
2023-01-21T16:46:26.840Z,5.08
2023-01-21T16:48:57.367Z,4.83
2023-01-21T16:51:29.731Z,5.06
2023-01-21T16:54:30.119Z,4.95
2023-01-21T16:57:00.546Z,5.16
2023-01-21T16:59:31.217Z,5.10
2023-01-21T17:02:00.870Z,5.14
2023-01-21T17:04:30.221Z,5.39
2023-01-21T17:06:59.277Z,5.58
2023-01-21T17:09:32.116Z,5.07
2023-01-21T17:12:04.810Z,4.91
2023-01-21T17:14:34.411Z,4.93
2023-01-21T17:17:07.264Z,5.11
2023-01-21T17:19:38.058Z,4.96
2023-01-21T17:22:14.689Z,4.66
2023-01-21T17:25:00.337Z,4.61
2023-01-21T17:27:29.940Z,4.83
2023-01-21T17:30:18.261Z,5.10
2023-01-21T17:32:53.459Z,4.86
2023-01-21T17:35:23.830Z,4.92
2023-01-21T17:37:56.942Z,4.76
2023-01-21T17:40:28.858Z,5.00
2023-01-21T17:42:58.145Z,4.90
2023-01-21T17:45:31.136Z,4.80
2023-01-21T17:48:11.022Z,4.94
2023-01-21T17:50:46.031Z,4.87
2023-01-21T17:53:20.833Z,5.11
2023-01-21T17:56:00.210Z,4.67
2023-01-21T17:58:51.191Z,4.82
2023-01-21T18:01:20.233Z,4.81
2023-01-21T18:03:48.080Z,4.79
2023-01-21T18:06:21.876Z,4.78
2023-01-21T18:08:50.969Z,4.58
2023-01-21T18:11:19.211Z,4.78
2023-01-21T18:13:47.073Z,4.76
2023-01-21T18:16:16.654Z,4.74
2023-01-21T18:18:45.130Z,4.71
2023-01-21T18:21:20.928Z,4.77
2023-01-21T18:23:49.230Z,4.81
2023-01-21T18:26:27.970Z,5.03
2023-01-21T18:28:55.865Z,4.75
2023-01-21T18:31:25.296Z,4.78
2023-01-21T18:33:53.304Z,4.81
2023-01-21T18:36:21.380Z,4.77
2023-01-21T18:38:49.271Z,5.01
2023-01-21T18:41:17.108Z,4.92
2023-01-21T18:43:44.978Z,4.71
2023-01-21T18:46:13.783Z,4.87
2023-01-21T18:48:43.221Z,4.97
2023-01-21T18:51:11.300Z,4.95
2023-01-21T18:53:39.300Z,4.75
2023-01-21T18:56:13.638Z,4.87
2023-01-21T18:58:41.577Z,4.81
2023-01-21T19:01:21.971Z,4.97
2023-01-21T19:03:53.978Z,4.67
2023-01-21T19:06:24.589Z,4.85
2023-01-21T19:08:52.557Z,4.75
2023-01-21T19:11:20.488Z,4.74
2023-01-21T19:13:48.420Z,4.69
2023-01-21T19:16:18.956Z,4.93
2023-01-21T19:18:47.158Z,4.83
2023-01-21T19:21:16.466Z,4.63
2023-01-21T19:23:44.624Z,4.88
2023-01-21T19:26:14.832Z,5.05
2023-01-21T19:28:43.240Z,5.15
2023-01-21T19:31:11.318Z,4.91
2023-01-21T19:33:41.927Z,4.79
2023-01-21T19:36:15.997Z,4.78
2023-01-21T19:38:52.215Z,4.89
2023-01-21T19:41:20.106Z,4.86
2023-01-21T19:43:47.988Z,4.58
2023-01-21T19:46:16.113Z,4.57
2023-01-21T19:48:44.105Z,4.83
2023-01-21T19:51:12.196Z,4.56
2023-01-21T19:53:40.071Z,4.89
2023-01-21T19:56:17.442Z,4.43
2023-01-21T19:58:45.548Z,4.54
2023-01-21T20:01:13.626Z,4.91
2023-01-21T20:03:54.549Z,4.76
2023-01-21T20:06:26.934Z,5.01
2023-01-21T20:08:54.941Z,4.88
2023-01-21T20:11:24.193Z,4.57
2023-01-21T20:13:52.183Z,4.93
2023-01-21T20:16:21.022Z,5.11
2023-01-21T20:18:49.840Z,5.02
2023-01-21T20:21:18.051Z,4.90
2023-01-21T20:23:45.955Z,5.22
2023-01-21T20:26:17.801Z,5.42
2023-01-21T20:28:51.433Z,5.22
2023-01-21T20:31:19.887Z,5.34
2023-01-21T20:33:49.157Z,5.23
2023-01-21T20:36:21.022Z,5.20
2023-01-21T20:38:49.172Z,5.50
2023-01-21T20:41:17.264Z,5.08
2023-01-21T20:43:45.188Z,5.48
2023-01-21T20:46:18.282Z,5.36
2023-01-21T20:48:46.484Z,5.33
2023-01-21T20:51:14.440Z,5.23
2023-01-21T20:53:42.357Z,5.23
2023-01-21T20:56:18.567Z,5.44
2023-01-21T20:58:47.969Z,5.54
2023-01-21T21:01:19.627Z,5.48
2023-01-21T21:03:47.838Z,5.35
2023-01-21T21:06:18.626Z,5.13
2023-01-21T21:08:47.173Z,5.21
2023-01-21T21:11:16.931Z,5.32
2023-01-21T21:13:47.639Z,5.38
2023-01-21T21:16:22.976Z,5.30
2023-01-21T21:18:51.303Z,5.01
2023-01-21T21:21:22.469Z,5.16
2023-01-21T21:23:52.292Z,5.27
2023-01-21T21:26:23.024Z,4.99
2023-01-21T21:28:54.615Z,5.34
2023-01-21T21:31:25.564Z,5.25
2023-01-21T21:33:53.763Z,5.42
2023-01-21T21:36:24.607Z,5.44
2023-01-21T21:38:55.737Z,5.38
2023-01-21T21:41:44.307Z,5.42
2023-01-21T21:44:13.082Z,5.30
2023-01-21T21:47:00.154Z,5.60
2023-01-21T21:49:28.777Z,5.74
2023-01-21T21:51:56.973Z,5.67
2023-01-21T21:54:24.968Z,5.56
2023-01-21T21:56:52.988Z,5.30
2023-01-21T21:59:21.047Z,5.69
2023-01-21T22:01:50.373Z,5.63
2023-01-21T22:04:18.265Z,5.49
2023-01-21T22:06:46.128Z,5.62
2023-01-21T22:09:14.433Z,5.68
2023-01-21T22:11:42.372Z,5.49
2023-01-21T22:14:10.238Z,5.41
2023-01-21T22:16:38.873Z,5.56
2023-01-21T22:19:08.239Z,5.36
2023-01-21T22:21:36.260Z,5.31
2023-01-21T22:24:06.807Z,5.49
2023-01-21T22:26:35.765Z,5.42
2023-01-21T22:29:04.245Z,5.58
2023-01-21T22:31:33.294Z,5.25
2023-01-21T22:34:01.888Z,5.43
2023-01-21T22:36:31.813Z,5.09
2023-01-21T22:39:00.396Z,5.40
2023-01-21T22:41:29.039Z,5.11
2023-01-21T22:43:57.041Z,5.25
2023-01-21T22:46:26.747Z,5.34
2023-01-21T22:48:55.387Z,5.37
2023-01-21T22:51:24.104Z,5.17
2023-01-21T22:53:54.438Z,5.38
2023-01-21T22:56:39.893Z,5.29
2023-01-21T22:59:12.492Z,5.60
2023-01-21T23:01:40.548Z,5.83
2023-01-21T23:04:08.494Z,5.25
2023-01-21T23:06:37.856Z,5.45
2023-01-21T23:09:09.561Z,5.36
2023-01-21T23:11:39.620Z,5.55
2023-01-21T23:14:08.975Z,5.42
2023-01-21T23:16:37.184Z,5.58
2023-01-21T23:19:05.082Z,5.47
2023-01-21T23:21:33.141Z,5.71
2023-01-21T23:24:01.039Z,5.49
2023-01-21T23:26:30.585Z,5.43
2023-01-21T23:28:58.785Z,5.41
2023-01-21T23:31:26.929Z,5.61
2023-01-21T23:33:57.173Z,5.66
2023-01-21T23:36:25.138Z,5.55
2023-01-21T23:38:53.023Z,5.56
2023-01-21T23:41:21.241Z,5.85
2023-01-21T23:43:50.712Z,5.43
2023-01-21T23:46:19.726Z,5.32
2023-01-21T23:48:47.940Z,5.67
2023-01-21T23:51:17.610Z,5.61
2023-01-21T23:53:45.927Z,5.48
2023-01-21T23:56:16.461Z,5.39
2023-01-21T23:58:44.439Z,5.31
